Kezdőlap
METAR-TAF:

METAR-TAF

Repülőterek :

Londonderry, Észak-Írország

földrajzi szélesség: 55-03N, földrajzi hosszúság: 007-09W, magasság: 9 m

Jelenlegi meteorológiai megfigyelések

A jelentés 39 perccel ezelõtt készült, 18:50 UTC
Északi szél 7 kt
Hőmérséklet 10°C
Páratartalom 76%
Légköri nyomás 1025 hPa
Látótávolság 10 km, vagy több
Kevés felhő 4000 lábon

METAR: EGAE 191850Z 35007KT 9999 FEW040 10/06 Q1025

Idő: 20:29 (19:29 UTC)

Előrejelzés

A jelentés 2 órával és 28 perccel ezelõtt készült, 17:01 UTC
Az előrejelzés 19-én 18 óra UTC és 19-én 21 óra UTC között érvényes
Északi szél 9 kt
Látótávolság 10 km, vagy több
Szórványos felhőzet 4000 lábon

TAF: EGAE 191701Z 1918/1921 36009KT 9999 SCT040

Meteorológiai megfigyelések és előrejelzések több, mint 4000 repülőtéren (METAR és TAF jelentéseket).

A térképen piros és sárga pontok jelzik az elérhető meteorológiai állomásokat.

Mozgassa az egeret a pont fölött, hogy megjelenjen az állomás neve.

Azután kattintson az időjárási megfigyelések és előrejelzések megtekintéséhez.

A térkép megváltoztatása: kattintson a fekete keresztel jelölt zöld gombra ráközelítéshez, a vonallal jelölt zöld gombra távolításhoz, vagy a zöld nyilakra a szomszédos térképek eléréséhez.


METAR-TAF: